Aviation Digital Data Service (ADDS)

Output produced by TAFs form (0434 UTC 22 September 2017)
found at http://www.aviationweather.gov/adds/tafs/
 
METAR text: RJBE 220400Z 03007KT 9999 -RA FEW030 BKN050 OVC100 21/18 Q1013
Conditions at: RJBE (KOBE , JP) observed 0400 UTC 22 September 2017
Temperature: 21.0°C (70°F)
Dewpoint: 18.0°C (64°F) [RH = 83%]
Pressure (altimeter): 29.91 inches Hg (1013.0 mb)
Winds: from the NNE (30 degrees) at 8 MPH (7 knots; 3.6 m/s)
Visibility: 6 or more miles (10+ km)
Ceiling: 5000 feet AGL
Clouds: few clouds at 3000 feet AGL
broken clouds at 5000 feet AGL
overcast cloud deck at 10000 feet AGL
Weather: -RA  (light rain)